Time;durP1;ratioP1;P1;durP2;ratioP2;P2;SDS_P1;SDS_P2;PMS_P1;PMS_P2;Temp;Humidity;BMP_temperature;BMP_pressure;BME280_temperature;BME280_humidity;BME280_pressure;Samples;Min_cycle;Max_cycle;Signal;HPM_P1;HPM_P2
2022/10/18 00:00:26;;;;;;;40.78;25.30;;;7.40;99.90;;;;;;5114250;28;20028;-74
2022/10/18 00:02:51;;;;;;;42.03;25.02;;;7.30;99.90;;;;;;5114530;28;20031;-71
2022/10/18 00:05:17;;;;;;;39.97;25.33;;;7.30;99.90;;;;;;5114452;28;20024;-74
2022/10/18 00:07:43;;;;;;;42.08;25.42;;;7.30;99.90;;;;;;5114415;28;20048;-74
2022/10/18 00:10:09;;;;;;;40.60;27.50;;;7.30;99.90;;;;;;5114121;28;20015;-74
2022/10/18 00:12:36;;;;;;;37.78;22.45;;;7.30;99.90;;;;;;5114275;28;20044;-71
2022/10/18 00:15:03;;;;;;;28.50;17.33;;;7.20;99.90;;;;;;5114140;28;20081;-71
2022/10/18 00:17:29;;;;;;;30.05;17.40;;;7.20;99.90;;;;;;5114226;28;20040;-71
2022/10/18 00:19:55;;;;;;;30.25;17.75;;;7.20;99.90;;;;;;5114149;28;20472;-71
2022/10/18 00:22:20;;;;;;;36.47;20.85;;;7.20;99.90;;;;;;5112776;28;20065;-74
2022/10/18 00:24:46;;;;;;;25.90;15.45;;;7.20;99.90;;;;;;5096678;28;20103;-74
2022/10/18 00:27:12;;;;;;;20.92;13.63;;;7.20;99.90;;;;;;5099120;28;20016;-73
2022/10/18 00:29:37;;;;;;;23.10;13.68;;;7.10;99.90;;;;;;5114076;28;20462;-71
2022/10/18 00:32:03;;;;;;;25.88;16.45;;;7.10;99.90;;;;;;5113897;28;20035;-73
2022/10/18 00:34:28;;;;;;;24.42;15.35;;;7.00;99.90;;;;;;5112450;28;20394;-74
2022/10/18 00:36:54;;;;;;;20.25;14.00;;;7.00;99.90;;;;;;5113964;28;20023;-71
2022/10/18 00:39:21;;;;;;;27.02;15.82;;;7.00;99.90;;;;;;5110702;28;20139;-73
2022/10/18 00:41:48;;;;;;;22.15;15.15;;;7.00;99.90;;;;;;5093436;28;20035;-73
2022/10/18 00:44:16;;;;;;;25.77;13.90;;;7.00;99.90;;;;;;5093504;28;20024;-71
2022/10/18 00:46:44;;;;;;;25.30;15.93;;;6.90;99.90;;;;;;5093418;28;20085;-74
2022/10/18 00:49:19;;;;;;;26.88;16.45;;;6.90;99.90;;;;;;5113378;28;20031;-71
2022/10/18 00:51:55;;;;;;;25.13;15.00;;;6.90;99.90;;;;;;5118003;28;20032;-71
2022/10/18 00:54:22;;;;;;;27.00;15.32;;;6.90;99.90;;;;;;5118091;28;20465;-73
2022/10/18 00:56:48;;;;;;;29.40;17.88;;;6.90;99.90;;;;;;5117918;27;20433;-73
2022/10/18 00:59:16;;;;;;;29.25;18.52;;;6.80;99.90;;;;;;5117896;28;20027;-71
2022/10/18 01:01:42;;;;;;;27.83;16.88;;;6.80;99.90;;;;;;5077138;28;20096;-73
2022/10/18 01:04:08;;;;;;;31.27;19.42;;;6.80;99.90;;;;;;5076023;28;20025;-71
2022/10/18 01:06:43;;;;;;;33.40;20.67;;;6.80;99.90;;;;;;5076961;28;20418;-74
2022/10/18 01:09:28;;;;;;;30.38;18.17;;;6.80;99.90;;;;;;5077201;28;20386;-71
2022/10/18 01:12:05;;;;;;;23.27;13.50;;;6.80;99.90;;;;;;5087046;28;20061;-71
2022/10/18 01:15:11;;;;;;;31.08;17.80;;;6.70;99.90;;;;;;5117735;28;20081;-74
2022/10/18 01:18:07;;;;;;;27.88;16.27;;;6.70;99.90;;;;;;5094114;27;20040;-72
2022/10/18 01:20:54;;;;;;;24.98;15.57;;;6.70;99.90;;;;;;5117563;27;20030;-71
2022/10/18 01:23:54;;;;;;;27.00;17.00;;;6.70;99.90;;;;;;5117556;28;20120;-71
2022/10/18 01:26:28;;;;;;;26.10;16.40;;;6.60;99.90;;;;;;5117483;28;20023;-71
2022/10/18 01:29:13;;;;;;;25.23;16.90;;;6.50;99.90;;;;;;5097152;28;20081;-71
2022/10/18 01:31:45;;;;;;;26.80;17.23;;;6.50;99.90;;;;;;5096755;28;20040;-73
2022/10/18 01:34:15;;;;;;;29.08;18.70;;;6.50;99.90;;;;;;5096967;28;20062;-71
2022/10/18 01:36:45;;;;;;;27.23;18.65;;;6.50;99.90;;;;;;5095556;28;20040;-74
2022/10/18 01:39:16;;;;;;;34.20;19.30;;;6.40;99.90;;;;;;5097069;28;20142;-71
2022/10/18 01:41:44;;;;;;;29.27;18.52;;;6.40;99.90;;;;;;5095323;28;20016;-74
2022/10/18 01:44:15;;;;;;;26.55;16.15;;;6.40;99.90;;;;;;5095477;28;20056;-71
2022/10/18 01:46:42;;;;;;;24.17;14.98;;;6.40;99.90;;;;;;5095380;28;20028;-71
2022/10/18 01:49:08;;;;;;;28.67;17.17;;;6.40;99.90;;;;;;5096715;28;20019;-71
2022/10/18 01:51:34;;;;;;;27.17;17.52;;;6.40;99.90;;;;;;5096340;28;20032;-72
2022/10/18 01:54:00;;;;;;;25.75;15.82;;;6.40;99.90;;;;;;5096605;28;20065;-71
2022/10/18 01:56:30;;;;;;;23.67;14.30;;;6.40;99.90;;;;;;5096450;28;20024;-74
2022/10/18 01:59:07;;;;;;;23.58;15.90;;;6.40;99.90;;;;;;5096595;28;20099;-74
2022/10/18 02:01:36;;;;;;;27.02;14.70;;;6.30;99.90;;;;;;5095381;28;20470;-74
2022/10/18 02:04:11;;;;;;;24.70;14.95;;;6.40;99.90;;;;;;5095143;28;20516;-71
2022/10/18 02:06:43;;;;;;;25.67;16.63;;;6.30;99.90;;;;;;5096259;28;20024;-73
2022/10/18 02:09:15;;;;;;;23.55;14.60;;;6.30;99.90;;;;;;5095033;28;20035;-71
2022/10/18 02:11:43;;;;;;;24.48;14.75;;;6.30;99.90;;;;;;5096097;28;20036;-71
2022/10/18 02:14:12;;;;;;;26.85;15.70;;;6.30;99.90;;;;;;5096243;28;20036;-74
2022/10/18 02:16:53;;;;;;;22.95;13.80;;;6.20;99.90;;;;;;5096115;28;20020;-74
2022/10/18 02:19:33;;;;;;;23.75;14.57;;;6.20;99.90;;;;;;5096245;28;20012;-73
2022/10/18 02:22:00;;;;;;;21.85;14.38;;;6.20;99.90;;;;;;5095983;28;20103;-73
2022/10/18 02:24:42;;;;;;;21.40;14.05;;;6.10;99.90;;;;;;5104641;28;20023;-71
2022/10/18 02:27:08;;;;;;;23.08;15.02;;;6.10;99.90;;;;;;5109365;28;20032;-74
2022/10/18 02:29:35;;;;;;;24.27;15.07;;;6.10;99.90;;;;;;5094446;28;20031;-73
2022/10/18 02:32:40;;;;;;;24.95;15.07;;;6.10;99.90;;;;;;5095630;28;20439;-74
2022/10/18 02:38:39;;;;;;;24.88;15.07;;;6.10;99.90;;;;;;5048808;28;20468;-71
2022/10/18 02:41:05;;;;;;;24.00;16.02;;;6.10;99.90;;;;;;5093544;28;20441;-74
2022/10/18 02:43:31;;;;;;;28.88;16.40;;;6.10;99.90;;;;;;5095531;28;20031;-72
2022/10/18 02:45:56;;;;;;;30.92;18.08;;;6.10;99.90;;;;;;5095224;28;20462;-71
2022/10/18 02:48:22;;;;;;;29.83;16.75;;;6.20;99.90;;;;;;5094156;28;20024;-73
2022/10/18 02:50:47;;;;;;;37.05;16.67;;;6.10;99.90;;;;;;5095406;28;20518;-73
2022/10/18 02:53:13;;;;;;;24.23;15.27;;;6.10;99.90;;;;;;5095343;28;20524;-72
2022/10/18 02:55:39;;;;;;;28.08;16.08;;;6.10;99.90;;;;;;5095392;28;20027;-71
2022/10/18 02:58:04;;;;;;;27.90;16.45;;;6.20;99.90;;;;;;5095271;28;20043;-74
2022/10/18 03:00:30;;;;;;;37.45;18.08;;;6.20;99.90;;;;;;5093932;28;20024;-73
2022/10/18 03:02:55;;;;;;;28.90;15.75;;;6.20;99.90;;;;;;5093851;28;20016;-73
2022/10/18 03:05:21;;;;;;;29.77;16.38;;;6.20;99.90;;;;;;5111412;28;20016;-71
2022/10/18 03:07:46;;;;;;;32.50;17.33;;;6.20;99.90;;;;;;5115473;28;20046;-71
2022/10/18 03:10:12;;;;;;;25.75;14.63;;;6.20;99.90;;;;;;5115384;28;20043;-74
2022/10/18 03:12:37;;;;;;;26.42;15.13;;;6.20;99.90;;;;;;5113942;28;20023;-73
2022/10/18 03:15:03;;;;;;;27.17;15.13;;;6.20;99.90;;;;;;5115278;28;20369;-71
2022/10/18 03:17:29;;;;;;;29.48;16.40;;;6.10;99.90;;;;;;5100450;28;20145;-72
2022/10/18 03:19:55;;;;;;;26.83;16.33;;;6.20;99.90;;;;;;5094720;28;20024;-71
2022/10/18 03:22:20;;;;;;;26.52;15.95;;;6.20;99.90;;;;;;5094755;28;20382;-71
2022/10/18 03:24:46;;;;;;;31.08;16.95;;;6.20;99.90;;;;;;5094749;28;20485;-71
2022/10/18 03:27:11;;;;;;;27.13;15.05;;;6.20;99.90;;;;;;5097616;28;20008;-74
2022/10/18 03:29:37;;;;;;;28.33;15.50;;;6.30;99.90;;;;;;5094638;28;20471;-73
2022/10/18 03:32:02;;;;;;;26.17;15.25;;;6.30;99.90;;;;;;5093181;28;20043;-73
2022/10/18 03:34:28;;;;;;;26.92;17.23;;;6.30;99.90;;;;;;5097016;28;20496;-74
2022/10/18 03:36:54;;;;;;;26.40;17.15;;;6.40;99.90;;;;;;5114997;28;20020;-73
2022/10/18 03:39:19;;;;;;;26.85;16.52;;;6.50;99.90;;;;;;5110390;28;20036;-73
2022/10/18 03:41:45;;;;;;;31.00;16.58;;;6.50;99.90;;;;;;5094398;28;20028;-73
2022/10/18 03:44:10;;;;;;;28.88;16.30;;;6.50;99.90;;;;;;5094288;28;20032;-74
2022/10/18 03:46:36;;;;;;;21.60;14.98;;;6.50;99.90;;;;;;5093029;28;20081;-73
2022/10/18 03:49:02;;;;;;;21.83;13.77;;;6.50;99.90;;;;;;5094304;28;20016;-74
2022/10/18 03:51:27;;;;;;;23.55;15.00;;;6.50;99.90;;;;;;5094230;28;20032;-73
2022/10/18 03:53:53;;;;;;;23.98;15.90;;;6.50;99.90;;;;;;5108426;28;20477;-73
2022/10/18 03:56:18;;;;;;;21.85;14.43;;;6.40;99.90;;;;;;5114605;28;20417;-73
2022/10/18 03:58:44;;;;;;;25.10;14.05;;;6.40;99.90;;;;;;5113247;28;20027;-72
2022/10/18 04:01:10;;;;;;;25.70;15.13;;;6.40;99.90;;;;;;5114489;28;20022;-73
2022/10/18 04:03:35;;;;;;;23.30;15.15;;;6.40;99.90;;;;;;5113056;28;20389;-71
2022/10/18 04:06:02;;;;;;;23.80;14.20;;;6.40;99.90;;;;;;5114393;28;20024;-71
2022/10/18 04:08:28;;;;;;;22.02;13.10;;;6.40;99.90;;;;;;5114292;28;20015;-71
2022/10/18 04:10:53;;;;;;;21.75;14.93;;;6.30;99.90;;;;;;5114248;28;20161;-72
2022/10/18 04:13:19;;;;;;;23.52;14.82;;;6.30;99.90;;;;;;5114316;28;20031;-73
2022/10/18 04:15:45;;;;;;;18.73;12.70;;;6.30;99.90;;;;;;5114209;28;20422;-73
2022/10/18 04:18:10;;;;;;;22.08;13.32;;;6.20;99.90;;;;;;5095963;28;20110;-71
2022/10/18 04:20:36;;;;;;;22.10;14.38;;;6.20;99.90;;;;;;5093740;28;20035;-74
2022/10/18 04:23:01;;;;;;;21.92;13.40;;;6.20;99.90;;;;;;5093737;28;20020;-74
2022/10/18 04:25:28;;;;;;;21.58;13.48;;;6.30;99.90;;;;;;5092101;28;20374;-71
2022/10/18 04:27:54;;;;;;;21.70;13.07;;;6.40;99.90;;;;;;5105091;28;20508;-74
2022/10/18 04:30:19;;;;;;;21.60;14.32;;;6.50;99.90;;;;;;5095698;28;20024;-73
2022/10/18 04:32:45;;;;;;;24.90;15.27;;;6.50;99.90;;;;;;5092507;28;20481;-73
2022/10/18 04:35:10;;;;;;;25.80;15.18;;;6.60;99.90;;;;;;5092296;28;20105;-73
2022/10/18 04:37:36;;;;;;;24.35;13.95;;;6.60;99.90;;;;;;5093714;28;20031;-71
2022/10/18 04:40:02;;;;;;;21.70;14.75;;;6.60;99.90;;;;;;5093186;28;20040;-73
2022/10/18 04:42:27;;;;;;;23.67;13.95;;;6.60;99.90;;;;;;5092260;28;20066;-71
2022/10/18 04:44:53;;;;;;;18.27;14.38;;;6.70;99.90;;;;;;5093397;28;20385;-73
2022/10/18 04:47:19;;;;;;;20.35;14.10;;;6.80;99.90;;;;;;5092316;28;20020;-71
2022/10/18 04:49:44;;;;;;;22.63;15.00;;;6.90;99.90;;;;;;5093507;28;20470;-73
2022/10/18 04:52:10;;;;;;;22.80;13.52;;;7.00;99.90;;;;;;5093461;28;20044;-73
2022/10/18 04:54:36;;;;;;;20.45;14.27;;;7.00;99.90;;;;;;5093403;28;20389;-73
2022/10/18 04:57:02;;;;;;;19.08;13.43;;;7.10;99.90;;;;;;5092324;28;20021;-71
2022/10/18 04:59:28;;;;;;;20.40;13.20;;;7.10;99.90;;;;;;5093301;28;20020;-71
2022/10/18 05:01:53;;;;;;;20.85;12.90;;;7.10;99.90;;;;;;5093478;28;20028;-71
2022/10/18 05:04:19;;;;;;;23.55;13.40;;;7.20;99.90;;;;;;5093413;28;20051;-73
2022/10/18 05:06:44;;;;;;;21.52;13.98;;;7.20;99.90;;;;;;5093339;28;20024;-71
2022/10/18 05:09:10;;;;;;;21.13;12.93;;;7.30;99.90;;;;;;5093310;28;20543;-71
2022/10/18 05:11:36;;;;;;;20.63;13.48;;;7.30;99.90;;;;;;5093378;28;20872;-74
2022/10/18 05:14:01;;;;;;;25.38;13.65;;;7.40;99.90;;;;;;5091942;28;20020;-71
2022/10/18 05:16:27;;;;;;;20.40;13.65;;;7.40;99.90;;;;;;5093181;28;20030;-73
2022/10/18 05:18:53;;;;;;;21.42;13.48;;;7.40;99.90;;;;;;5093234;28;20021;-71
2022/10/18 05:21:18;;;;;;;33.58;14.73;;;7.50;99.90;;;;;;5093024;28;20550;-70
2022/10/18 05:23:44;;;;;;;25.60;14.10;;;7.50;99.90;;;;;;5105938;28;20385;-73
2022/10/18 05:26:10;;;;;;;29.60;16.55;;;7.50;99.90;;;;;;5113456;28;20019;-73
2022/10/18 05:28:36;;;;;;;26.88;16.25;;;7.60;99.90;;;;;;5094584;28;20093;-74
2022/10/18 05:31:04;;;;;;;27.42;17.35;;;7.60;99.90;;;;;;5091541;28;20043;-71
2022/10/18 05:33:31;;;;;;;31.65;18.20;;;7.60;99.90;;;;;;5093038;28;20043;-70
2022/10/18 05:35:57;;;;;;;30.92;18.70;;;7.70;99.90;;;;;;5093971;28;20024;-73
2022/10/18 05:38:22;;;;;;;26.17;16.70;;;7.70;99.90;;;;;;5096909;28;20024;-74
2022/10/18 05:40:48;;;;;;;23.27;16.00;;;7.70;99.90;;;;;;5095417;28;20052;-74
2022/10/18 05:43:13;;;;;;;23.70;15.10;;;7.80;99.90;;;;;;5096741;28;20021;-73
2022/10/18 05:45:45;;;;;;;20.58;14.35;;;7.80;99.90;;;;;;5096621;28;20027;-70
2022/10/18 05:48:11;;;;;;;24.88;14.85;;;7.90;99.90;;;;;;5096714;28;20382;-75
2022/10/18 05:50:36;;;;;;;24.38;13.35;;;8.00;99.90;;;;;;5096401;28;20090;-70
2022/10/18 05:53:02;;;;;;;24.30;15.65;;;8.00;99.90;;;;;;5102891;28;20081;-74
2022/10/18 05:55:27;;;;;;;22.40;13.32;;;8.10;99.90;;;;;;5116720;28;20102;-73
2022/10/18 05:57:53;;;;;;;19.90;13.38;;;8.20;99.90;;;;;;5115563;28;20047;-71
2022/10/18 06:00:18;;;;;;;22.17;13.77;;;8.30;99.90;;;;;;5116678;28;20366;-70
2022/10/18 06:02:44;;;;;;;22.33;14.88;;;8.40;99.90;;;;;;5116858;28;20388;-71
2022/10/18 06:05:09;;;;;;;23.83;14.15;;;8.50;99.90;;;;;;5116406;28;20050;-73
2022/10/18 06:07:35;;;;;;;21.42;13.70;;;8.70;99.90;;;;;;5116723;28;20381;-74
2022/10/18 06:10:01;;;;;;;21.90;13.15;;;8.80;99.90;;;;;;5116525;28;20028;-73
2022/10/18 06:12:27;;;;;;;22.80;13.50;;;8.90;99.90;;;;;;5116477;28;20095;-71
2022/10/18 06:14:52;;;;;;;24.73;13.63;;;9.00;99.90;;;;;;5116010;28;20088;-74
2022/10/18 06:17:18;;;;;;;20.65;13.15;;;9.20;99.90;;;;;;5114705;28;20480;-74
2022/10/18 06:19:43;;;;;;;19.02;13.93;;;9.30;99.90;;;;;;5115928;28;20473;-74
2022/10/18 06:22:12;;;;;;;19.27;12.60;;;9.50;99.90;;;;;;5115919;28;20027;-74
2022/10/18 06:24:38;;;;;;;25.98;15.55;;;9.60;99.90;;;;;;5115936;28;20069;-74
2022/10/18 06:27:07;;;;;;;25.90;16.05;;;9.80;99.90;;;;;;5109453;28;20534;-74
2022/10/18 06:29:34;;;;;;;23.73;16.02;;;9.90;99.90;;;;;;5095430;28;20089;-74
2022/10/18 06:32:00;;;;;;;18.85;14.02;;;10.10;99.90;;;;;;5095279;28;20055;-74
2022/10/18 06:34:25;;;;;;;24.65;15.02;;;10.20;99.90;;;;;;5095702;28;20486;-73
2022/10/18 06:36:51;;;;;;;23.67;16.15;;;10.30;99.90;;;;;;5095502;28;20521;-74
2022/10/18 06:39:16;;;;;;;48.65;17.90;;;10.50;99.90;;;;;;5095191;28;20041;-73
2022/10/18 06:41:42;;;;;;;25.85;14.85;;;10.60;99.90;;;;;;5095315;28;20503;-70
2022/10/18 06:44:12;;;;;;;17.08;10.07;;;10.70;99.90;;;;;;5095427;28;20386;-70
2022/10/18 06:46:43;;;;;;;26.90;13.93;;;10.80;99.90;;;;;;5094839;28;20469;-70
2022/10/18 06:49:09;;;;;;;23.00;13.73;;;11.00;99.90;;;;;;5095387;28;20373;-73
2022/10/18 06:51:35;;;;;;;24.45;13.80;;;11.20;99.90;;;;;;5095302;28;20024;-70
2022/10/18 06:54:00;;;;;;;18.48;12.65;;;11.30;99.90;;;;;;5095485;28;20023;-70
2022/10/18 06:56:26;;;;;;;20.67;12.43;;;11.30;99.90;;;;;;5095279;28;20031;-69
2022/10/18 06:58:52;;;;;;;22.52;12.85;;;11.40;99.90;;;;;;5095337;28;20085;-74
2022/10/18 07:01:18;;;;;;;22.25;14.13;;;11.60;99.90;;;;;;5095168;28;20031;-73
2022/10/18 07:03:45;;;;;;;20.80;13.35;;;11.60;99.90;;;;;;5093548;28;20390;-70
2022/10/18 07:06:13;;;;;;;23.90;12.35;;;11.70;99.90;;;;;;5103403;28;20033;-74
2022/10/18 07:08:39;;;;;;;21.38;12.25;;;11.90;99.90;;;;;;5115537;28;20028;-69
2022/10/18 07:11:06;;;;;;;25.45;14.48;;;12.00;99.90;;;;;;5115310;28;20040;-73
2022/10/18 07:13:32;;;;;;;22.05;13.32;;;12.20;99.90;;;;;;5115433;28;20024;-69
2022/10/18 07:16:02;;;;;;;17.95;12.90;;;12.30;99.90;;;;;;5115259;28;20028;-69
2022/10/18 07:18:27;;;;;;;17.02;11.35;;;12.50;99.90;;;;;;5104322;28;20470;-70
2022/10/18 07:20:53;;;;;;;18.67;12.15;;;12.60;99.90;;;;;;5094803;28;20039;-69
2022/10/18 07:23:19;;;;;;;16.80;12.27;;;12.60;99.90;;;;;;5094826;28;20129;-70
2022/10/18 07:25:45;;;;;;;18.83;12.70;;;12.80;99.90;;;;;;5094798;28;20020;-69
2022/10/18 07:28:11;;;;;;;21.55;11.95;;;12.90;99.90;;;;;;5109499;28;20019;-70
2022/10/18 07:30:37;;;;;;;17.30;11.55;;;13.00;99.90;;;;;;5102311;28;20043;-69
2022/10/18 07:33:03;;;;;;;19.08;11.80;;;13.20;99.90;;;;;;5093283;28;20065;-69
2022/10/18 07:35:28;;;;;;;17.20;11.27;;;13.30;99.90;;;;;;5094650;28;20024;-70
2022/10/18 07:37:54;;;;;;;19.58;11.75;;;13.30;99.90;;;;;;5094510;28;20020;-73
2022/10/18 07:40:20;;;;;;;24.33;13.95;;;13.40;99.90;;;;;;5094165;28;20048;-69
2022/10/18 07:42:45;;;;;;;26.35;13.82;;;13.50;99.90;;;;;;5094479;28;20466;-73
2022/10/18 07:45:12;;;;;;;18.27;11.23;;;13.60;99.90;;;;;;5094364;28;20062;-73
2022/10/18 07:47:38;;;;;;;19.80;12.10;;;13.80;99.90;;;;;;5094200;28;20111;-73
2022/10/18 07:50:04;;;;;;;17.27;10.98;;;13.90;99.90;;;;;;5094284;28;20056;-73
2022/10/18 07:52:29;;;;;;;14.20;10.75;;;14.00;99.90;;;;;;5094225;28;20474;-73
2022/10/18 07:54:55;;;;;;;16.58;10.25;;;14.20;99.90;;;;;;5094291;28;20027;-73
2022/10/18 07:57:22;;;;;;;16.25;9.40;;;14.30;99.90;;;;;;5094233;28;20035;-70
2022/10/18 07:59:51;;;;;;;15.45;9.45;;;14.40;99.90;;;;;;5093399;28;20028;-73
2022/10/18 08:02:16;;;;;;;11.95;9.05;;;14.50;99.90;;;;;;5094076;28;20046;-70
2022/10/18 08:04:42;;;;;;;10.05;8.05;;;14.70;99.90;;;;;;5094274;28;20031;-69
2022/10/18 08:07:07;;;;;;;12.00;7.03;;;14.80;99.90;;;;;;5093980;28;20020;-70
2022/10/18 08:09:33;;;;;;;12.55;7.60;;;14.90;99.90;;;;;;5094023;28;20076;-71
2022/10/18 08:11:59;;;;;;;10.65;6.53;;;15.00;99.00;;;;;;5093938;28;20390;-71
2022/10/18 08:14:24;;;;;;;10.50;6.80;;;15.20;93.40;;;;;;5093822;28;20035;-73
2022/10/18 08:16:50;;;;;;;11.77;6.72;;;15.30;95.50;;;;;;5093765;28;20028;-73
2022/10/18 08:19:15;;;;;;;11.43;6.85;;;15.40;92.70;;;;;;5093936;28;20024;-72
2022/10/18 08:21:41;;;;;;;16.50;6.47;;;15.50;87.90;;;;;;5093722;28;20031;-69
2022/10/18 08:24:06;;;;;;;12.98;6.60;;;15.60;83.30;;;;;;5093797;28;20103;-73
2022/10/18 08:26:32;;;;;;;8.52;5.97;;;15.70;82.70;;;;;;5096318;28;20036;-70
2022/10/18 08:28:57;;;;;;;10.77;6.85;;;15.80;82.80;;;;;;5114049;28;20019;-70
2022/10/18 08:31:23;;;;;;;12.32;6.72;;;15.90;81.80;;;;;;5106221;28;20047;-72
2022/10/18 08:33:49;;;;;;;10.15;5.80;;;16.10;80.40;;;;;;5093725;28;20099;-73
2022/10/18 08:36:15;;;;;;;8.25;5.57;;;16.10;78.10;;;;;;5092412;28;20028;-73
2022/10/18 08:38:42;;;;;;;9.35;5.70;;;16.20;76.00;;;;;;5093480;28;20050;-70
2022/10/18 08:41:32;;;;;;;9.77;5.43;;;16.30;77.30;;;;;;5093530;28;20534;-73
2022/10/18 08:44:17;;;;;;;10.32;5.45;;;16.40;75.70;;;;;;5093580;28;20035;-69
2022/10/18 08:46:48;;;;;;;5.93;5.30;;;16.50;75.60;;;;;;5093645;28;20032;-73
2022/10/18 08:49:48;;;;;;;14.10;6.25;;;16.60;73.90;;;;;;5091958;28;20024;-70
2022/10/18 08:52:57;;;;;;;7.13;5.45;;;16.70;72.50;;;;;;5085968;28;20382;-71
2022/10/18 08:55:42;;;;;;;8.23;5.68;;;16.80;71.50;;;;;;5093529;28;20027;-70
2022/10/18 08:58:28;;;;;;;8.30;5.03;;;16.90;70.00;;;;;;5093360;28;20024;-73
2022/10/18 09:01:10;;;;;;;6.05;4.68;;;17.00;70.60;;;;;;5093461;28;20485;-71
2022/10/18 09:04:05;;;;;;;11.50;6.95;;;17.10;70.60;;;;;;5092132;28;20031;-73
2022/10/18 09:06:47;;;;;;;9.73;5.03;;;17.20;68.20;;;;;;5093370;28;20020;-73
2022/10/18 09:09:24;;;;;;;;;;;17.30;68.20;;;;;;5093813;28;20031;-69
2022/10/18 09:12:04;;;;;;;7.65;4.38;;;17.20;65.00;;;;;;5096091;28;20281;-73
2022/10/18 09:14:54;;;;;;;6.80;4.65;;;17.30;66.00;;;;;;5110174;28;20035;-70
2022/10/18 09:17:58;;;;;;;12.15;4.85;;;17.30;65.60;;;;;;5117806;28;20031;-70
2022/10/18 09:20:27;;;;;;;7.63;4.45;;;17.40;65.40;;;;;;5111619;28;20081;-70
2022/10/18 09:22:57;;;;;;;7.35;4.43;;;17.30;62.90;;;;;;5117532;27;20019;-73
2022/10/18 09:25:44;;;;;;;9.55;5.50;;;17.50;65.40;;;;;;5117661;28;20102;-73
2022/10/18 09:28:25;;;;;;;10.10;4.53;;;17.50;65.40;;;;;;5100836;28;20111;-73
2022/10/18 09:31:06;;;;;;;13.93;6.00;;;17.50;63.40;;;;;;5096972;28;20039;-73
2022/10/18 09:34:00;;;;;;;48.50;44.22;;;17.60;62.30;;;;;;5095625;28;20020;-73
2022/10/18 09:36:34;;;;;;;7.13;4.97;;;17.60;62.40;;;;;;5096979;28;20028;-69
2022/10/18 09:39:04;;;;;;;5.93;4.78;;;17.60;61.40;;;;;;5096626;28;20021;-73
2022/10/18 09:41:56;;;;;;;6.53;4.72;;;17.60;60.80;;;;;;5096848;28;20020;-70
2022/10/18 09:44:30;;;;;;;7.20;5.00;;;17.70;62.40;;;;;;5095463;28;20054;-70
2022/10/18 09:47:20;;;;;;;7.75;4.70;;;17.70;62.90;;;;;;5096808;28;20454;-73
2022/10/18 09:49:56;;;;;;;6.50;4.57;;;17.80;60.70;;;;;;5096637;28;20016;-73
2022/10/18 09:52:40;;;;;;;5.90;4.32;;;17.80;61.60;;;;;;5096649;28;20039;-69
2022/10/18 09:55:18;;;;;;;9.20;5.30;;;18.00;61.70;;;;;;5095287;28;20082;-73
2022/10/18 09:57:49;;;;;;;4.90;4.40;;;18.10;62.40;;;;;;5115659;28;20461;-73
2022/10/18 10:00:21;;;;;;;9.82;4.13;;;18.10;60.80;;;;;;5116723;28;20431;-73
2022/10/18 10:02:47;;;;;;;6.65;4.40;;;18.20;60.70;;;;;;5117011;28;20030;-69
2022/10/18 10:05:13;;;;;;;8.43;4.30;;;18.20;59.50;;;;;;5116704;28;20027;-73
2022/10/18 10:07:46;;;;;;;5.68;4.22;;;18.20;59.10;;;;;;5115314;28;20081;-73
2022/10/18 10:10:24;;;;;;;6.28;4.78;;;18.20;59.30;;;;;;5116560;28;20026;-69
2022/10/18 10:13:21;;;;;;;5.30;4.70;;;18.20;59.70;;;;;;5116654;28;20027;-73
2022/10/18 10:16:00;;;;;;;9.50;6.57;;;18.40;60.30;;;;;;5116475;28;20103;-73
2022/10/18 10:18:53;;;;;;;8.05;4.85;;;18.40;59.20;;;;;;5116501;27;20031;-69
2022/10/18 10:21:20;;;;;;;10.02;4.43;;;18.40;58.10;;;;;;5103499;28;20016;-72
2022/10/18 10:23:53;;;;;;;14.57;6.32;;;18.50;59.30;;;;;;5095982;28;20023;-73
2022/10/18 10:26:33;;;;;;;11.98;6.78;;;18.50;60.40;;;;;;5095803;28;20024;-69
2022/10/18 10:28:59;;;;;;;7.93;4.97;;;18.60;60.40;;;;;;5116413;28;20384;-69
2022/10/18 10:31:24;;;;;;;6.57;4.63;;;18.70;58.40;;;;;;5116180;28;20028;-70
2022/10/18 10:34:18;;;;;;;5.55;3.90;;;18.70;56.80;;;;;;5099898;28;20107;-70
2022/10/18 10:36:52;;;;;;;9.20;4.45;;;18.70;57.40;;;;;;5095997;28;20027;-70
2022/10/18 10:39:20;;;;;;;6.10;4.25;;;18.80;56.20;;;;;;5095479;28;20093;-73
2022/10/18 10:41:48;;;;;;;8.50;4.63;;;18.80;57.30;;;;;;5095615;28;20028;-70
2022/10/18 10:44:16;;;;;;;8.60;4.82;;;18.80;56.40;;;;;;5095429;28;20031;-73
2022/10/18 10:46:41;;;;;;;8.90;5.15;;;18.80;56.10;;;;;;5095536;28;20047;-73
2022/10/18 10:49:22;;;;;;;7.47;4.47;;;18.90;56.70;;;;;;5095531;28;20016;-73
2022/10/18 10:51:59;;;;;;;7.28;4.82;;;18.90;56.40;;;;;;5095335;28;20547;-70
2022/10/18 10:54:26;;;;;;;6.97;4.60;;;19.00;56.10;;;;;;5094145;28;20050;-69
2022/10/18 10:57:11;;;;;;;6.07;4.15;;;19.00;55.60;;;;;;5103390;28;20023;-70
2022/10/18 10:59:49;;;;;;;5.85;4.25;;;19.00;55.60;;;;;;5114342;28;20105;-73
2022/10/18 11:02:19;;;;;;;6.97;4.85;;;19.10;55.40;;;;;;5115628;28;20031;-73
2022/10/18 11:04:47;;;;;;;4.97;4.47;;;19.20;56.60;;;;;;5115614;28;20062;-73
2022/10/18 11:07:35;;;;;;;7.88;4.25;;;19.20;55.10;;;;;;5115640;28;20069;-73
2022/10/18 11:10:08;;;;;;;7.95;4.38;;;19.20;54.90;;;;;;5115491;27;20026;-69
2022/10/18 11:12:43;;;;;;;9.88;4.28;;;19.20;53.90;;;;;;5114091;28;20062;-73
2022/10/18 11:15:10;;;;;;;9.27;4.57;;;19.20;53.30;;;;;;5115335;28;20144;-69
2022/10/18 11:18:09;;;;;;;4.93;3.78;;;19.20;53.10;;;;;;5115364;28;20026;-73
2022/10/18 11:20:44;;;;;;;6.90;3.65;;;19.30;53.30;;;;;;5113960;28;20028;-73
2022/10/18 11:23:14;;;;;;;9.00;4.53;;;19.30;52.80;;;;;;5115279;28;20023;-73
2022/10/18 11:26:09;;;;;;;6.00;4.25;;;19.30;53.60;;;;;;5115117;28;20019;-73
2022/10/18 11:28:35;;;;;;;7.30;4.30;;;19.30;53.00;;;;;;5074608;28;20055;-73
2022/10/18 11:31:09;;;;;;;7.28;4.30;;;19.30;53.00;;;;;;5073026;28;20173;-73
2022/10/18 11:33:43;;;;;;;6.10;4.43;;;19.30;52.90;;;;;;5101227;28;20068;-70
2022/10/18 11:36:27;;;;;;;6.07;3.97;;;19.30;52.80;;;;;;5113600;28;20034;-73
2022/10/18 11:39:12;;;;;;;6.25;4.20;;;19.30;53.10;;;;;;5111636;28;20028;-73
2022/10/18 11:41:45;;;;;;;9.05;4.63;;;19.30;53.30;;;;;;5094400;28;20035;-73
2022/10/18 11:44:22;;;;;;;7.55;4.47;;;19.40;53.40;;;;;;5094560;28;20024;-69
2022/10/18 11:47:02;;;;;;;5.75;4.63;;;19.40;53.70;;;;;;5093033;28;20035;-69
2022/10/18 11:49:54;;;;;;;5.95;4.38;;;19.40;52.90;;;;;;5093102;28;20031;-69
2022/10/18 11:52:31;;;;;;;6.30;4.68;;;19.40;53.10;;;;;;5094301;28;20371;-69
2022/10/18 11:55:04;;;;;;;7.68;4.30;;;19.40;53.60;;;;;;5074022;28;20054;-69
2022/10/18 11:57:36;;;;;;;;;;;19.50;54.60;;;;;;5101094;28;20020;-73
2022/10/18 12:00:26;;;;;;;7.38;4.63;;;19.60;54.10;;;;;;5114617;28;19903;-69
2022/10/18 12:03:21;;;;;;;11.48;5.13;;;19.60;53.80;;;;;;5114563;28;20389;-69
2022/10/18 12:05:48;;;;;;;8.98;4.03;;;19.60;53.00;;;;;;5114494;28;20046;-69
2022/10/18 12:08:22;;;;;;;5.00;3.78;;;19.70;53.20;;;;;;5114212;28;20024;-70
2022/10/18 12:10:51;;;;;;;4.40;3.47;;;19.60;53.30;;;;;;5113955;28;20035;-73
2022/10/18 12:13:26;;;;;;;7.65;4.53;;;19.50;52.60;;;;;;5114402;28;20016;-69
2022/10/18 12:15:54;;;;;;;7.65;4.00;;;19.50;52.90;;;;;;5112874;28;20020;-73
2022/10/18 12:18:24;;;;;;;7.82;4.55;;;19.50;53.30;;;;;;5114403;28;20055;-73
2022/10/18 12:20:56;;;;;;;6.78;4.68;;;19.60;53.70;;;;;;5109847;28;20103;-69
2022/10/18 12:23:43;;;;;;;11.48;4.95;;;19.70;53.80;;;;;;5093945;28;20026;-70
2022/10/18 12:26:10;;;;;;;8.93;5.10;;;19.60;53.30;;;;;;5094110;28;20016;-70
2022/10/18 12:29:16;;;;;;;6.68;4.50;;;19.60;53.70;;;;;;5114174;28;20419;-70
2022/10/18 12:31:46;;;;;;;6.20;4.70;;;19.60;53.50;;;;;;5114085;28;20024;-73
2022/10/18 12:34:24;;;;;;;6.25;4.57;;;19.60;54.20;;;;;;5114125;28;20024;-69
2022/10/18 12:37:21;;;;;;;9.63;5.70;;;19.70;55.30;;;;;;5112674;28;20023;-73
2022/10/18 12:39:55;;;;;;;13.45;6.13;;;19.70;54.00;;;;;;5101676;28;20040;-73
2022/10/18 12:42:25;;;;;;;6.47;5.05;;;19.70;54.20;;;;;;5092301;28;20020;-69
2022/10/18 12:45:13;;;;;;;5.38;4.43;;;19.80;54.90;;;;;;5093112;28;20047;-73
2022/10/18 12:47:39;;;;;;;7.57;4.38;;;19.80;53.50;;;;;;5091939;28;20036;-70
2022/10/18 12:50:25;;;;;;;12.20;6.80;;;19.80;53.70;;;;;;5093493;28;20028;-73
2022/10/18 12:53:05;;;;;;;4.13;3.45;;;19.80;54.70;;;;;;5105794;28;20111;-69
2022/10/18 12:55:36;;;;;;;6.13;4.10;;;19.80;53.90;;;;;;5113893;28;20019;-73
2022/10/18 12:58:13;;;;;;;9.27;4.35;;;19.80;53.80;;;;;;5112551;28;20032;-69
2022/10/18 13:00:42;;;;;;;7.20;3.50;;;19.80;53.80;;;;;;5113813;28;20038;-73